Garden Spring, Nevada Weather observations

Data are for 10 minute period ending at time listed.
 Day   Time    Ave.   Ave.  Ave.  Vector   Max.   Stn.    Total    Solar   Ave.  
  of    of     Air    Rel.  Wind   Wind    Wind   Baro.  Precip.   Rad.    Soil  
Year   Day     Temp.  Hum.  Speed  Dir.    Gust   Pres.                    Temp. 
2016   (PST)    F      %     mph   deg.    mph     mb.     in.     W/m2     F    
--------------------------------------------------------------------------------- 
 341    3:00   37.7    38    3.1   266      4.8   846.1    0.00       0    42.9  
 341    4:00   37.3    40    3.5   269      5.6   845.9    0.00       0    42.5  
 341    5:00   37.9    39    3.3   274      6.2   845.6    0.00       0    42.3  
 341    6:00   36.7    43    3.7   276      5.4   845.4    0.00       0    42.0  
 341    7:00   36.1    44    3.5   278      4.7   845.6    0.00       3    41.8  
 341    8:00   37.9    42    2.7   272      4.8   845.7    0.00      75    41.7  
 341    9:00   46.5    28    3.6   146      9.0   846.2    0.00     292    42.1  
 341   10:00   47.4    27    4.3   123      9.1   846.5    0.00     424    41.7  
 341   11:00   49.2    26    4.2   149     11.4   845.9    0.00     509    42.3  
 341   12:00   49.2    26    6.8   159     12.9   844.9    0.00     540    43.9  
 341   13:00   50.1    24    7.2   176     15.2   844.1    0.00     512    45.8  
 341   14:00   51.1    23    5.7   211     11.4   843.6    0.00     424    47.5  
 341   15:00   50.1    23    6.0   214     13.2   843.5    0.00     288    48.7  
 341   16:00   45.8    28    4.4   237     10.9   843.7    0.00      88    49.2  
 341   17:00   39.4    36    3.8   254      7.0   844.0    0.00       4    49.0  
 341   18:00   36.5    41    4.4   269      8.0   844.2    0.00       0    48.6  
 341   19:00   34.6    45    4.1   274      6.8   844.6    0.00       0    47.7  
 341   20:00   34.4    47    4.7   277      7.9   845.0    0.00       0    46.8  
 341   21:00   39.4    36    6.2   314     15.9   845.8    0.00       0    46.2  
 341   22:00   37.9    30    9.3   330     23.8   846.4    0.00       0    45.1  
 341   23:00   36.3    30   10.1   323     24.3   847.2    0.00       0    44.3  
 342    0:00   35.4    30    9.8   315     22.0   848.0    0.00       0    43.7  
 342    1:00   34.2    30    6.0   321     16.8   848.5    0.00       0    43.0  
 342    2:00   33.9    30    7.2   302     18.1   849.1    0.00       0    42.5  

Return to Garden Spring, Nevada graphs page.


Western Regional Climate Center,wrcc@dri.edu